Time;durP1;ratioP1;P1;durP2;ratioP2;P2;SDS_P1;SDS_P2;PMS_P1;PMS_P2;Temp;Humidity;BMP_temperature;BMP_pressure;BME280_temperature;BME280_humidity;BME280_pressure;Samples;Min_cycle;Max_cycle;Signal;HPM_P1;HPM_P2
2021/11/26 00:01:06;;;;;;;;;16.00;9.50;;;;;6.14;69.58;100340.34;5099082;27;45317;-60
2021/11/26 00:03:31;;;;;;;;;13.00;9.00;;;;;6.12;69.67;100342.22;5098496;27;55272;-60
2021/11/26 00:05:57;;;;;;;;;14.25;9.75;;;;;6.11;69.65;100337.94;5080730;27;45264;-60
2021/11/26 00:08:22;;;;;;;;;14.00;8.75;;;;;6.08;69.55;100334.63;5098214;27;65188;-60
2021/11/26 00:10:48;;;;;;;;;13.25;8.00;;;;;6.07;69.54;100339.97;5097618;27;45429;-60
2021/11/26 00:13:13;;;;;;;;;16.75;10.75;;;;;6.05;69.65;100332.22;5098550;27;57122;-60
2021/11/26 00:15:42;;;;;;;;;13.50;11.00;;;;;6.05;69.55;100328.81;5098727;27;45449;-60
2021/11/26 00:18:17;;;;;;;;;17.25;10.00;;;;;6.03;69.37;100338.53;5098852;27;45454;-60
2021/11/26 00:20:42;;;;;;;;;13.50;10.00;;;;;6.00;69.52;100330.88;5080090;27;45738;-60
2021/11/26 00:23:08;;;;;;;;;12.25;9.00;;;;;5.99;69.47;100332.63;5098625;27;46016;-60
2021/11/26 00:25:34;;;;;;;;;16.00;12.50;;;;;5.98;69.61;100330.16;5098832;27;45434;-60
2021/11/26 00:27:59;;;;;;;;;15.50;10.50;;;;;5.97;69.54;100333.72;5098556;27;46285;-60
2021/11/26 00:30:24;;;;;;;;;20.50;11.00;;;;;5.96;69.40;100324.22;5098032;27;62578;-60
2021/11/26 00:32:50;;;;;;;;;11.00;9.50;;;;;5.94;69.42;100326.94;5098740;27;45529;-60
2021/11/26 00:35:15;;;;;;;;;11.50;9.00;;;;;5.92;69.36;100329.66;5097661;27;67139;-60
2021/11/26 00:37:41;;;;;;;;;9.25;7.50;;;;;5.90;69.37;100331.53;5098390;27;46332;-60
2021/11/26 00:40:07;;;;;;;;;12.25;7.00;;;;;5.89;69.58;100326.41;5096314;27;64572;-60
2021/11/26 00:42:32;;;;;;;;;8.00;7.00;;;;;5.87;69.68;100321.34;5098464;27;45374;-60
2021/11/26 00:44:57;;;;;;;;;13.75;8.75;;;;;5.87;69.66;100315.28;5098620;27;45345;-60
2021/11/26 00:47:23;;;;;;;;;12.75;10.50;;;;;5.87;69.50;100310.06;5096298;27;70227;-60
2021/11/26 00:49:48;;;;;;;;;13.25;10.25;;;;;5.85;69.51;100304.97;5098370;27;45264;-60
2021/11/26 00:52:14;;;;;;;;;13.00;9.00;;;;;5.85;69.69;100307.56;5098432;27;45295;-62
2021/11/26 00:54:39;;;;;;;;;11.00;8.50;;;;;5.85;69.75;100315.41;5097250;27;45315;-60
2021/11/26 00:57:07;;;;;;;;;8.25;8.00;;;;;5.86;69.42;100308.38;5097396;27;72385;-60
2021/11/26 00:59:36;;;;;;;;;9.00;6.50;;;;;5.86;69.50;100303.19;5098495;27;45344;-60
2021/11/26 01:02:02;;;;;;;;;9.00;7.00;;;;;5.86;69.57;100301.41;5098057;27;45437;-61
2021/11/26 01:04:28;;;;;;;;;9.50;8.25;;;;;5.87;69.69;100307.44;5097144;27;45584;-60
2021/11/26 01:06:53;;;;;;;;;9.50;7.25;;;;;5.87;69.45;100303.06;5097207;27;71102;-60
2021/11/26 01:09:18;;;;;;;;;9.75;7.25;;;;;5.88;69.41;100298.69;5097195;27;66452;-60
2021/11/26 01:11:44;;;;;;;;;10.00;7.00;;;;;5.90;69.25;100296.78;5097466;27;61525;-61
2021/11/26 01:14:09;;;;;;;;;10.50;6.50;;;;;5.89;69.23;100295.97;5097312;27;57886;-60
2021/11/26 01:16:34;;;;;;;;;8.50;7.50;;;;;5.88;69.21;100294.31;5097162;27;60928;-60
2021/11/26 01:19:00;;;;;;;;;13.50;8.50;;;;;5.88;69.21;100296.06;5097913;27;45411;-62
2021/11/26 01:21:25;;;;;;;;;9.00;7.75;;;;;5.87;69.19;100295.25;5098020;27;45708;-62
2021/11/26 01:23:51;;;;;;;;;10.25;8.50;;;;;5.88;69.26;100291.72;5096542;27;45311;-61
2021/11/26 01:26:16;;;;;;;;;8.25;7.50;;;;;5.87;69.12;100289.19;5097783;27;45677;-61
2021/11/26 01:28:41;;;;;;;;;10.25;7.75;;;;;5.87;69.02;100291.81;5078797;27;62761;-62
2021/11/26 01:31:07;;;;;;;;;11.50;7.25;;;;;5.85;69.12;100285.88;5097081;27;63532;-61
2021/11/26 01:33:32;;;;;;;;;10.25;9.00;;;;;5.85;69.30;100278.03;5097844;27;45242;-61
2021/11/26 01:35:59;;;;;;;;;10.00;7.75;;;;;5.85;69.25;100270.22;5097539;27;46520;-62
2021/11/26 01:38:24;;;;;;;;;11.50;10.25;;;;;5.85;68.97;100275.44;5097572;27;45846;-59
2021/11/26 01:40:50;;;;;;;;;8.25;5.25;;;;;5.83;68.91;100272.97;5097453;27;45392;-60
2021/11/26 01:43:17;;;;;;;;;7.75;6.00;;;;;5.85;68.95;100275.44;5097689;27;45351;-60
2021/11/26 01:45:44;;;;;;;;;7.50;6.00;;;;;5.85;68.97;100278.03;5097426;27;45495;-60
2021/11/26 01:48:10;;;;;;;;;8.00;8.00;;;;;5.86;68.90;100270.13;5097485;27;45773;-59
2021/11/26 01:50:35;;;;;;;;;10.25;9.25;;;;;5.86;69.05;100274.50;5097568;27;45313;-59
2021/11/26 01:53:00;;;;;;;;;10.25;8.00;;;;;5.87;69.05;100274.41;5079118;27;45394;-60
2021/11/26 01:55:26;;;;;;;;;13.50;6.50;;;;;5.88;68.95;100260.41;5096681;27;61238;-60
2021/11/26 01:57:51;;;;;;;;;9.50;5.50;;;;;5.90;68.73;100255.91;5096552;27;65397;-62
2021/11/26 02:00:22;;;;;;;;;8.00;5.75;;;;;5.91;68.87;100257.59;5095206;27;66599;-60
2021/11/26 02:02:48;;;;;;;;;10.50;7.50;;;;;5.91;68.76;100244.53;5096431;27;45382;-59
2021/11/26 02:05:13;;;;;;;;;15.75;6.00;;;;;5.92;68.74;100245.38;5096466;27;65020;-60
2021/11/26 02:07:39;;;;;;;;;6.50;5.00;;;;;5.92;68.66;100242.75;5096372;27;62157;-60
2021/11/26 02:10:05;;;;;;;;;8.25;8.25;;;;;5.93;68.64;100237.44;5096570;27;60603;-62
2021/11/26 02:12:31;;;;;;;;;9.00;7.50;;;;;5.94;68.46;100225.22;5097166;27;45469;-60
2021/11/26 02:14:58;;;;;;;;;9.50;8.25;;;;;5.94;68.59;100220.00;5096224;27;46683;-61
2021/11/26 02:17:23;;;;;;;;;8.50;8.00;;;;;5.94;68.54;100214.78;5097086;27;45906;-60
2021/11/26 02:19:55;;;;;;;;;9.50;7.25;;;;;5.95;68.36;100216.44;5096711;27;48718;-61
2021/11/26 02:22:21;;;;;;;;;12.00;8.00;;;;;5.95;68.31;100213.84;5096834;27;45324;-61
2021/11/26 02:24:47;;;;;;;;;10.50;6.00;;;;;5.94;68.44;100206.97;5096843;27;45308;-62
2021/11/26 02:27:15;;;;;;;;;10.00;8.50;;;;;5.92;68.19;100198.44;5096217;27;65199;-62
2021/11/26 02:29:41;;;;;;;;;14.75;10.00;;;;;5.91;68.32;100194.16;5097121;27;45596;-61
2021/11/26 02:32:06;;;;;;;;;16.00;8.25;;;;;5.90;68.28;100195.94;5096269;27;60230;-62
2021/11/26 02:34:32;;;;;;;;;14.50;10.00;;;;;5.90;68.25;100189.88;5096845;27;46204;-62
2021/11/26 02:36:57;;;;;;;;;15.00;10.00;;;;;5.88;67.94;100194.38;5096073;27;63558;-61
2021/11/26 02:39:22;;;;;;;;;11.50;9.25;;;;;5.87;68.27;100184.91;5096101;27;60197;-62
2021/11/26 02:41:49;;;;;;;;;8.00;7.75;;;;;5.86;68.25;100189.28;5096032;27;61796;-61
2021/11/26 02:44:14;;;;;;;;;11.00;9.00;;;;;5.85;68.49;100186.78;5096541;27;46499;-61
2021/11/26 02:46:40;;;;;;;;;10.75;9.00;;;;;5.84;68.46;100182.50;5078402;27;45353;-62
2021/11/26 02:49:05;;;;;;;;;11.50;10.50;;;;;5.82;68.27;100176.63;5096856;27;45289;-61
2021/11/26 02:51:31;;;;;;;;;13.75;7.75;;;;;5.81;68.46;100172.34;5095465;27;45320;-62
2021/11/26 02:53:56;;;;;;;;;14.00;10.50;;;;;5.80;68.62;100171.50;5096165;27;54554;-61
2021/11/26 02:56:22;;;;;;;;;9.00;9.00;;;;;5.78;68.49;100165.56;5096602;27;45369;-62
2021/11/26 02:58:47;;;;;;;;;11.25;8.75;;;;;5.77;68.72;100158.69;5094711;27;61659;-62
2021/11/26 03:01:13;;;;;;;;;10.00;8.00;;;;;5.78;68.60;100155.97;5095972;27;62281;-62
2021/11/26 03:03:38;;;;;;;;;12.25;7.00;;;;;5.77;68.60;100159.53;5077670;27;45546;-61
2021/11/26 03:06:04;;;;;;;;;9.00;9.00;;;;;5.77;68.46;100151.72;5096125;27;51581;-62
2021/11/26 03:08:30;;;;;;;;;10.50;8.00;;;;;5.77;68.61;100145.66;5096694;27;45407;-62
2021/11/26 03:10:56;;;;;;;;;14.00;9.00;;;;;5.76;68.30;100146.59;5096338;27;45588;-62
2021/11/26 03:13:21;;;;;;;;;10.75;8.00;;;;;5.74;68.63;100145.88;5096288;27;46828;-62
2021/11/26 03:15:47;;;;;;;;;10.00;8.75;;;;;5.73;68.50;100145.06;5095497;27;64040;-62
2021/11/26 03:18:16;;;;;;;;;29.25;24.25;;;;;5.72;68.42;100139.94;5096526;27;45331;-62
2021/11/26 03:20:41;;;;;;;;;13.25;13.25;;;;;5.72;68.40;100142.56;5095232;27;45382;-62
2021/11/26 03:23:07;;;;;;;;;9.00;8.00;;;;;5.71;68.16;100140.88;5078025;27;45600;-61
2021/11/26 03:25:32;;;;;;;;;9.75;9.25;;;;;5.69;68.07;100132.34;5095571;27;62244;-62
2021/11/26 03:27:57;;;;;;;;;12.50;9.75;;;;;5.66;68.04;100133.44;5098425;27;45217;-62
2021/11/26 03:30:23;;;;;;;;;12.50;10.00;;;;;5.63;68.03;100131.88;5098986;27;63745;-62
2021/11/26 03:32:48;;;;;;;;;9.25;7.00;;;;;5.61;68.08;100125.94;5099538;27;45341;-62
2021/11/26 03:35:14;;;;;;;;;8.25;8.25;;;;;5.59;68.07;100117.41;5097510;27;64989;-62
2021/11/26 03:37:40;;;;;;;;;10.00;7.75;;;;;5.57;68.19;100114.06;5099706;27;45344;-61
2021/11/26 03:40:06;;;;;;;;;13.00;9.00;;;;;5.55;68.17;100104.72;5098319;27;45322;-61
2021/11/26 03:42:31;;;;;;;;;11.00;8.00;;;;;5.54;68.33;100103.06;5099413;27;46605;-62
2021/11/26 03:44:57;;;;;;;;;9.00;8.25;;;;;5.52;68.38;100095.38;5099334;27;45453;-61
2021/11/26 03:47:22;;;;;;;;;11.00;9.00;;;;;5.54;68.53;100090.88;5099250;27;50994;-61
2021/11/26 03:49:48;;;;;;;;;12.75;8.75;;;;;5.55;68.58;100083.88;5098684;27;64771;-62
2021/11/26 03:52:13;;;;;;;;;11.00;9.25;;;;;5.53;68.45;100085.75;5098547;27;67229;-61
2021/11/26 03:54:40;;;;;;;;;10.75;8.25;;;;;5.52;68.50;100086.69;5098509;27;66950;-61
2021/11/26 03:57:06;;;;;;;;;10.75;9.00;;;;;5.51;68.70;100078.06;5099485;27;45287;-62
2021/11/26 03:59:31;;;;;;;;;9.50;9.25;;;;;5.49;68.66;100079.97;5081169;27;45447;-61
2021/11/26 04:01:57;;;;;;;;;9.00;8.75;;;;;5.48;68.81;100073.91;5079813;27;68611;-61
2021/11/26 04:04:22;;;;;;;;;11.00;9.50;;;;;5.46;68.91;100065.38;5098275;27;68066;-61
2021/11/26 04:06:47;;;;;;;;;9.50;7.00;;;;;5.46;68.82;100064.56;5099361;27;45358;-61
2021/11/26 04:09:13;;;;;;;;;8.75;8.25;;;;;5.45;68.87;100062.88;5099222;27;45167;-61
2021/11/26 04:11:38;;;;;;;;;13.00;8.75;;;;;5.44;68.96;100062.03;5098620;27;60305;-62
2021/11/26 04:14:03;;;;;;;;;9.75;8.50;;;;;5.42;68.95;100058.72;5098022;27;69113;-61
2021/11/26 04:16:32;;;;;;;;;10.25;9.25;;;;;5.40;68.88;100052.78;5097963;27;64511;-61
2021/11/26 04:18:57;;;;;;;;;14.00;10.00;;;;;5.37;68.76;100045.22;5099064;27;45265;-61
2021/11/26 04:21:22;;;;;;;;;13.00;9.50;;;;;5.36;68.68;100043.53;5097994;27;71287;-61
2021/11/26 04:23:48;;;;;;;;;13.50;11.00;;;;;5.32;68.68;100042.09;5097786;27;66338;-61
2021/11/26 04:26:13;;;;;;;;;13.75;9.25;;;;;5.29;68.34;100039.75;5098027;27;64841;-61
2021/11/26 04:28:39;;;;;;;;;15.75;10.75;;;;;5.25;68.61;100035.72;5098652;27;45380;-61
2021/11/26 04:31:04;;;;;;;;;7.50;7.50;;;;;5.20;68.55;100029.06;5098514;27;50277;-62
2021/11/26 04:33:32;;;;;;;;;17.75;9.75;;;;;5.19;68.79;100031.78;5097409;27;45381;-61
2021/11/26 04:35:57;;;;;;;;;10.00;10.00;;;;;5.18;69.21;100030.97;5080445;27;45491;-61
2021/11/26 04:38:23;;;;;;;;;11.25;8.75;;;;;5.19;69.29;100032.63;5098094;27;45362;-61
2021/11/26 04:40:48;;;;;;;;;13.75;11.25;;;;;5.21;69.52;100022.06;5097555;27;66101;-61
2021/11/26 04:43:15;;;;;;;;;14.75;11.75;;;;;5.22;69.49;100020.31;5080165;27;45414;-61
2021/11/26 04:45:40;;;;;;;;;10.75;9.00;;;;;5.22;69.68;100020.31;5098324;27;50584;-61
2021/11/26 04:48:05;;;;;;;;;11.25;10.75;;;;;5.23;69.80;100024.59;5098643;27;45303;-61
2021/11/26 04:50:31;;;;;;;;;12.50;12.50;;;;;5.23;69.77;100017.59;5096690;27;45305;-61
2021/11/26 04:52:56;;;;;;;;;10.25;9.50;;;;;5.26;69.91;100013.94;5097875;27;59056;-61
2021/11/26 04:55:22;;;;;;;;;12.50;9.25;;;;;5.26;69.98;100014.75;5097973;27;60158;-61
2021/11/26 04:57:47;;;;;;;;;12.75;10.00;;;;;5.29;70.02;100013.72;5098578;27;45327;-61
2021/11/26 05:00:15;;;;;;;;;11.00;10.00;;;;;5.30;70.07;100012.75;5097585;27;63369;-61
2021/11/26 05:02:41;;;;;;;;;11.25;10.00;;;;;5.31;70.06;100011.78;5098277;27;45343;-61
2021/11/26 05:05:06;;;;;;;;;14.00;12.00;;;;;5.32;70.29;100009.09;5079854;27;45415;-61
2021/11/26 05:07:32;;;;;;;;;16.00;14.75;;;;;5.35;70.08;100002.81;5098135;27;45329;-61
2021/11/26 05:09:59;;;;;;;;;14.50;9.50;;;;;5.36;70.00;99999.25;5097622;27;58470;-61
2021/11/26 05:12:30;;;;;;;;;19.25;11.75;;;;;5.37;69.85;99985.28;5098143;27;46014;-61
2021/11/26 05:14:55;;;;;;;;;17.50;11.00;;;;;5.37;70.06;99982.69;5098077;27;45268;-61
2021/11/26 05:17:20;;;;;;;;;15.75;11.00;;;;;5.39;69.86;99975.56;5097481;27;61286;-61
2021/11/26 05:19:46;;;;;;;;;15.00;13.00;;;;;5.39;69.62;99978.19;5097059;27;74785;-61
2021/11/26 05:22:11;;;;;;;;;15.00;10.00;;;;;5.38;69.59;99984.34;5078903;27;64845;-61
2021/11/26 05:24:36;;;;;;;;;11.50;11.50;;;;;5.36;69.81;99973.19;5097644;27;52071;-61
2021/11/26 05:27:02;;;;;;;;;12.00;10.25;;;;;5.35;69.59;99961.97;5097137;27;61720;-61
2021/11/26 05:29:27;;;;;;;;;15.00;9.50;;;;;5.32;69.74;99951.78;5097783;27;45977;-61
2021/11/26 05:31:53;;;;;;;;;11.75;11.25;;;;;5.33;69.66;99947.38;5097060;27;63905;-61
2021/11/26 05:34:18;;;;;;;;;16.00;13.00;;;;;5.33;69.72;99950.00;5097984;27;45793;-61
2021/11/26 05:36:43;;;;;;;;;14.00;13.75;;;;;5.33;69.60;99944.78;5097760;27;45272;-62
2021/11/26 05:39:09;;;;;;;;;18.50;13.25;;;;;5.31;69.64;99937.09;5097595;27;45373;-61
2021/11/26 05:41:34;;;;;;;;;17.00;14.25;;;;;5.31;69.47;99928.44;5096817;27;61532;-61
2021/11/26 05:44:00;;;;;;;;;16.75;13.75;;;;;5.30;69.50;99924.19;5097816;27;45390;-61
2021/11/26 05:46:25;;;;;;;;;17.75;14.00;;;;;5.30;69.39;99919.00;5097633;27;45431;-61
2021/11/26 05:48:50;;;;;;;;;21.00;16.50;;;;;5.27;69.30;99924.44;5095177;27;46052;-61
2021/11/26 05:51:16;;;;;;;;;15.50;14.00;;;;;5.27;69.21;99919.22;5097549;27;45432;-61
2021/11/26 05:53:41;;;;;;;;;27.00;22.75;;;;;5.26;69.30;99912.34;5097026;27;45452;-61
2021/11/26 05:56:07;;;;;;;;;25.75;23.50;;;;;5.26;69.32;99901.94;5096094;27;45563;-61
2021/11/26 05:58:33;;;;;;;;;21.25;20.00;;;;;5.25;69.33;99905.50;5096672;27;60392;-61
2021/11/26 06:00:58;;;;;;;;;22.00;19.25;;;;;5.24;69.06;99911.63;5096405;27;45398;-61
2021/11/26 06:03:23;;;;;;;;;14.50;12.50;;;;;5.25;69.24;99905.50;5097361;27;45189;-61
2021/11/26 06:05:49;;;;;;;;;11.75;10.00;;;;;5.24;69.41;99898.63;5096290;27;67668;-61
2021/11/26 06:08:14;;;;;;;;;15.25;10.75;;;;;5.24;69.18;99896.00;5096529;27;58934;-61
2021/11/26 06:10:40;;;;;;;;;13.50;11.25;;;;;5.25;69.35;99893.28;5096111;27;71227;-61
2021/11/26 06:13:05;;;;;;;;;15.00;13.75;;;;;5.23;69.56;99883.94;5096937;27;49085;-61
2021/11/26 06:15:30;;;;;;;;;14.75;12.25;;;;;5.23;69.56;99876.94;5094917;27;64786;-61
2021/11/26 06:17:56;;;;;;;;;14.00;12.50;;;;;5.22;69.74;99877.06;5095637;27;46243;-61
2021/11/26 06:20:21;;;;;;;;;13.25;10.00;;;;;5.22;69.67;99880.50;5096858;27;45277;-61
2021/11/26 06:22:47;;;;;;;;;13.50;10.50;;;;;5.21;70.07;99873.63;5096857;27;45178;-61
2021/11/26 06:25:13;;;;;;;;;13.75;10.00;;;;;5.20;70.08;99875.41;5096188;27;62890;-61
2021/11/26 06:27:39;;;;;;;;;15.25;12.50;;;;;5.19;70.30;99868.53;5096834;27;46390;-61
2021/11/26 06:30:05;;;;;;;;;13.50;9.50;;;;;5.19;70.17;99867.69;5096500;27;45379;-61
2021/11/26 06:32:31;;;;;;;;;11.50;9.50;;;;;5.18;70.14;99863.44;5096678;27;45287;-61
2021/11/26 06:34:56;;;;;;;;;14.00;10.00;;;;;5.17;70.18;99867.81;5077929;27;53009;-62
2021/11/26 06:37:21;;;;;;;;;11.50;9.25;;;;;5.18;70.16;99853.88;5095601;27;65756;-61
2021/11/26 06:39:47;;;;;;;;;12.00;10.25;;;;;5.18;70.51;99853.00;5096226;27;45327;-62
2021/11/26 06:42:12;;;;;;;;;13.75;10.25;;;;;5.16;70.17;99845.34;5077628;27;59730;-61
2021/11/26 06:44:37;;;;;;;;;9.75;9.00;;;;;5.16;70.35;99842.72;5096683;27;45307;-61
2021/11/26 06:47:03;;;;;;;;;10.25;8.75;;;;;5.16;70.38;99834.91;5095677;27;70447;-62
2021/11/26 06:49:29;;;;;;;;;20.50;11.50;;;;;5.15;70.23;99837.63;5096604;27;45828;-61
2021/11/26 06:51:54;;;;;;;;;13.00;11.50;;;;;5.12;70.63;99820.47;5096517;27;45267;-61
2021/11/26 06:54:20;;;;;;;;;13.25;10.25;;;;;5.13;70.62;99823.91;5095710;27;65656;-61
2021/11/26 06:56:45;;;;;;;;;14.00;11.50;;;;;5.11;70.56;99816.22;5095709;27;63699;-61
2021/11/26 06:59:11;;;;;;;;;20.00;14.25;;;;;5.11;70.61;99811.00;5096380;27;45231;-61
2021/11/26 07:01:36;;;;;;;;;13.00;12.50;;;;;5.12;70.76;99802.25;5097202;27;63500;-61
2021/11/26 07:04:02;;;;;;;;;22.25;19.50;;;;;5.14;70.90;99804.72;5099199;27;61860;-61
2021/11/26 07:06:27;;;;;;;;;21.50;16.50;;;;;5.15;71.04;99795.97;5099796;27;45200;-61
2021/11/26 07:08:52;;;;;;;;;14.25;14.00;;;;;5.16;71.06;99792.41;5099562;27;53479;-61
2021/11/26 07:11:18;;;;;;;;;19.50;14.50;;;;;5.19;71.04;99793.00;5099175;27;64407;-61
2021/11/26 07:13:43;;;;;;;;;17.50;14.50;;;;;5.20;70.77;99788.63;5099233;27;65337;-61
2021/11/26 07:16:08;;;;;;;;;21.25;15.00;;;;;5.23;70.79;99779.75;5098774;27;64988;-61
2021/11/26 07:18:34;;;;;;;;;17.50;14.75;;;;;5.22;70.72;99778.91;5099449;27;45453;-61
2021/11/26 07:20:59;;;;;;;;;18.25;13.50;;;;;5.23;70.85;99774.53;5098118;27;50366;-61
2021/11/26 07:23:25;;;;;;;;;17.75;15.00;;;;;5.24;70.70;99774.41;5099668;27;45486;-61
2021/11/26 07:25:50;;;;;;;;;22.50;19.00;;;;;5.26;70.91;99767.31;5099423;27;45420;-61
2021/11/26 07:28:16;;;;;;;;;31.00;25.00;;;;;5.26;70.89;99761.28;5081245;27;45458;-61
2021/11/26 07:30:41;;;;;;;;;19.50;15.50;;;;;5.29;70.70;99767.06;5099694;27;45469;-61
2021/11/26 07:33:07;;;;;;;;;19.25;15.25;;;;;5.29;70.89;99756.66;5099389;27;45466;-61
2021/11/26 07:35:33;;;;;;;;;16.75;14.00;;;;;5.30;70.80;99758.31;5099345;27;45445;-61
2021/11/26 07:37:58;;;;;;;;;20.50;16.00;;;;;5.29;70.78;99755.84;5098116;27;45293;-61
2021/11/26 07:40:24;;;;;;;;;21.75;16.00;;;;;5.30;70.81;99760.91;5098566;27;56994;-61
2021/11/26 07:42:49;;;;;;;;;24.75;17.25;;;;;5.34;70.87;99748.44;5080304;27;61717;-61
2021/11/26 07:45:15;;;;;;;;;22.75;14.50;;;;;5.35;70.59;99750.94;5099174;27;45377;-61
2021/11/26 07:47:40;;;;;;;;;20.50;16.75;;;;;5.38;70.63;99743.84;5099357;27;45317;-61
2021/11/26 07:50:07;;;;;;;;;20.50;15.00;;;;;5.41;70.71;99743.59;5081034;27;45296;-61
2021/11/26 07:52:33;;;;;;;;;19.75;17.00;;;;;5.42;70.61;99740.88;5099317;27;45248;-61
2021/11/26 07:54:58;;;;;;;;;23.75;17.25;;;;;5.43;70.38;99739.91;5063716;27;47034;-61
2021/11/26 07:57:24;;;;;;;;;18.00;15.75;;;;;5.43;70.50;99733.88;5099025;27;45405;-61
2021/11/26 07:59:49;;;;;;;;;29.50;19.75;;;;;5.46;70.63;99733.66;5098555;27;55708;-61
2021/11/26 08:02:15;;;;;;;;;21.75;16.25;;;;;5.45;70.65;99740.63;5099170;27;45570;-61
2021/11/26 08:04:40;;;;;;;;;23.50;19.25;;;;;5.50;70.53;99732.44;5098724;27;49882;-61
2021/11/26 08:07:06;;;;;;;;;24.25;19.00;;;;;5.55;70.59;99726.84;5098909;27;45322;-61
2021/11/26 08:09:32;;;;;;;;;16.50;15.50;;;;;5.57;70.34;99719.75;5080780;27;45292;-61
2021/11/26 08:11:58;;;;;;;;;24.25;19.75;;;;;5.59;70.51;99715.25;5098013;27;45578;-61
2021/11/26 08:14:23;;;;;;;;;19.25;16.75;;;;;5.63;70.19;99707.03;5098974;27;46364;-61
2021/11/26 08:16:50;;;;;;;;;18.00;14.75;;;;;5.67;70.14;99705.03;5080262;27;45457;-62
2021/11/26 08:19:15;;;;;;;;;22.25;17.00;;;;;5.69;70.11;99690.09;5098767;27;45335;-61
2021/11/26 08:21:41;;;;;;;;;20.50;17.75;;;;;5.73;69.78;99688.88;5098692;27;45612;-61
2021/11/26 08:24:07;;;;;;;;;21.50;17.75;;;;;5.77;69.73;99682.47;5097151;27;46238;-61
2021/11/26 08:26:32;;;;;;;;;20.50;16.00;;;;;5.78;69.56;99668.47;5098536;27;45342;-61
2021/11/26 08:28:58;;;;;;;;;21.00;15.75;;;;;5.81;69.59;99682.22;5097891;27;62941;-61
2021/11/26 08:31:23;;;;;;;;;19.00;16.00;;;;;5.84;69.21;99677.56;5097823;27;64721;-62
2021/11/26 08:33:49;;;;;;;;;21.00;16.00;;;;;5.87;69.46;99679.91;5079871;27;45808;-61
2021/11/26 08:36:14;;;;;;;;;23.25;19.25;;;;;5.92;69.33;99679.53;5096947;27;45346;-61
2021/11/26 08:38:39;;;;;;;;;21.50;14.00;;;;;5.96;69.24;99675.72;5078760;27;45781;-61
2021/11/26 08:41:05;;;;;;;;;32.25;20.25;;;;;6.02;69.09;99674.44;5053259;28;55207;-61
2021/11/26 08:43:30;;;;;;;;;17.00;15.00;;;;;6.05;69.05;99675.00;5057464;28;45372;-61
2021/11/26 08:45:56;;;;;;;;;16.75;15.25;;;;;6.11;68.84;99668.41;5059075;28;45404;-61
2021/11/26 08:48:21;;;;;;;;;21.00;17.25;;;;;6.16;68.82;99673.28;5055092;28;45352;-62
2021/11/26 08:50:46;;;;;;;;;16.50;14.25;;;;;6.22;68.69;99664.94;5055087;28;62593;-61
2021/11/26 08:53:13;;;;;;;;;31.00;28.75;;;;;6.26;68.40;99668.94;5056011;28;45331;-61
2021/11/26 08:55:39;;;;;;;;;19.00;15.75;;;;;6.31;68.34;99664.16;5056131;28;46032;-62
2021/11/26 08:58:06;;;;;;;;;17.50;15.75;;;;;6.35;68.11;99662.94;5056146;28;45467;-61
2021/11/26 09:00:34;;;;;;;;;22.50;16.00;;;;;6.39;67.93;99653.06;5055953;28;45664;-61
2021/11/26 09:03:00;;;;;;;;;19.25;16.00;;;;;6.43;67.52;99649.22;5062830;28;45496;-61
2021/11/26 09:05:25;;;;;;;;;26.75;20.50;;;;;6.44;67.46;99637.00;5057700;28;46027;-62
2021/11/26 09:07:51;;;;;;;;;18.00;16.25;;;;;6.45;67.37;99639.50;5056044;28;45491;-61
2021/11/26 09:10:17;;;;;;;;;21.00;15.25;;;;;6.46;67.34;99624.66;5054398;28;45414;-61
2021/11/26 09:12:43;;;;;;;;;8.00;8.00;;;;;6.48;67.10;99609.69;5059146;28;45321;-61
2021/11/26 09:15:08;;;;;;;;;24.00;14.50;;;;;6.49;66.47;99608.72;5055171;28;64491;-62
2021/11/26 09:17:34;;;;;;;;;17.25;16.00;;;;;6.49;66.94;99619.16;5047649;28;45239;-62
2021/11/26 09:19:59;;;;;;;;;17.25;15.00;;;;;6.51;66.84;99610.25;5057350;28;45470;-62
2021/11/26 09:22:25;;;;;;;;;19.75;15.25;;;;;6.55;66.81;99600.38;5055377;28;61354;-62
2021/11/26 09:24:52;;;;;;;;;15.25;13.75;;;;;6.61;66.82;99594.63;5056570;28;45240;-62
2021/11/26 09:27:17;;;;;;;;;15.50;14.00;;;;;6.69;66.54;99586.09;5054658;28;45477;-62
2021/11/26 09:29:45;;;;;;;;;18.00;15.75;;;;;6.76;66.43;99586.41;5054760;28;57734;-62
2021/11/26 09:32:10;;;;;;;;;13.75;12.00;;;;;6.81;66.05;99584.22;5055590;28;47241;-62
2021/11/26 09:34:36;;;;;;;;;17.00;12.00;;;;;6.88;65.78;99581.88;5049474;28;45621;-62
2021/11/26 09:37:02;;;;;;;;;14.00;11.75;;;;;6.91;65.24;99574.59;5054400;28;45376;-61
2021/11/26 09:39:27;;;;;;;;;12.00;11.50;;;;;6.95;64.97;99570.75;5058178;28;45438;-61
2021/11/26 09:41:53;;;;;;;;;14.00;12.00;;;;;6.97;65.03;99563.59;5078924;27;46349;-61
2021/11/26 09:44:19;;;;;;;;;14.75;11.00;;;;;7.01;64.86;99556.34;5077290;27;45505;-62
2021/11/26 09:46:46;;;;;;;;;16.00;12.00;;;;;7.05;64.58;99549.03;5074361;27;59125;-62
2021/11/26 09:49:12;;;;;;;;;18.75;12.00;;;;;7.10;64.53;99539.84;5079203;27;46321;-62
2021/11/26 09:51:37;;;;;;;;;17.75;14.00;;;;;7.15;64.49;99536.81;5074907;27;46433;-62
2021/11/26 09:54:03;;;;;;;;;16.25;13.25;;;;;7.24;64.05;99537.75;5075819;27;45494;-62
2021/11/26 09:56:31;;;;;;;;;13.25;11.00;;;;;7.34;63.83;99529.91;5048596;27;45561;-62
2021/11/26 09:58:57;;;;;;;;;11.50;10.75;;;;;7.46;63.65;99523.53;5075534;27;46322;-62
2021/11/26 10:01:23;;;;;;;;;14.50;10.00;;;;;7.60;63.11;99524.91;5077639;27;46600;-62
2021/11/26 10:03:50;;;;;;;;;9.25;9.25;;;;;7.72;63.04;99507.25;5077320;27;45322;-61
2021/11/26 10:06:44;;;;;;;;;15.75;10.75;;;;;7.81;62.74;99503.78;5075335;27;45438;-62
2021/11/26 10:09:12;;;;;;;;;9.75;9.00;;;;;7.90;62.05;99494.25;5075033;27;45454;-60
2021/11/26 10:12:02;;;;;;;;;10.00;9.00;;;;;7.96;61.47;99492.81;5080423;27;46440;-62
2021/11/26 10:14:30;;;;;;;;;10.00;8.00;;;;;7.98;61.05;99490.91;5078285;27;45888;-61
2021/11/26 10:17:15;;;;;;;;;12.25;6.25;;;;;7.97;60.53;99484.00;5075816;27;45532;-62
2021/11/26 10:19:44;;;;;;;;;8.50;7.25;;;;;7.95;60.36;99486.78;5076362;27;45962;-62
2021/11/26 10:22:13;;;;;;;;;10.75;7.50;;;;;7.95;59.80;99470.28;5074202;27;47218;-61
2021/11/26 10:24:39;;;;;;;;;8.75;8.75;;;;;7.90;59.56;99456.81;5074087;27;45441;-61
2021/11/26 10:27:04;;;;;;;;;8.50;6.25;;;;;7.86;59.46;99445.81;5075655;27;45920;-61
2021/11/26 10:29:34;;;;;;;;;10.75;7.00;;;;;7.84;59.31;99432.88;5056267;27;62570;-61
2021/11/26 10:32:10;;;;;;;;;8.25;5.00;;;;;7.81;59.32;99422.72;5056463;27;46483;-61
2021/11/26 10:34:36;;;;;;;;;7.25;6.00;;;;;7.78;58.85;99409.94;5056501;27;45848;-61
2021/11/26 10:37:01;;;;;;;;;8.50;6.25;;;;;7.76;58.89;99409.25;5079805;27;45537;-61
2021/11/26 10:39:27;;;;;;;;;10.75;7.25;;;;;7.74;58.71;99408.56;5073458;27;66929;-61
2021/11/26 10:41:55;;;;;;;;;6.75;6.75;;;;;7.72;58.96;99400.06;5048651;28;46281;-61
2021/11/26 10:44:34;;;;;;;;;10.75;8.50;;;;;7.70;58.84;99397.56;5058548;28;45424;-61
2021/11/26 11:00:03;;;;;;;;;16.75;9.25;;;;;7.68;58.76;99375.97;5053507;28;45474;-62
2021/11/26 11:02:35;;;;;;;;;11.25;8.00;;;;;7.68;58.55;99357.66;5053329;28;46475;-61
2021/11/26 11:05:01;;;;;;;;;6.75;6.75;;;;;7.70;58.66;99352.31;5052195;28;45435;-61
2021/11/26 11:07:36;;;;;;;;;8.75;7.25;;;;;7.70;58.79;99353.13;5054034;28;45646;-61
2021/11/26 11:10:01;;;;;;;;;10.50;7.25;;;;;7.71;58.67;99339.06;5053347;28;46302;-61
2021/11/26 11:12:32;;;;;;;;;7.25;6.50;;;;;7.73;58.43;99328.47;5054946;28;45601;-61
2021/11/26 11:14:59;;;;;;;;;9.75;5.00;;;;;7.73;58.15;99316.22;5058965;28;45568;-61
2021/11/26 11:17:28;;;;;;;;;9.50;7.25;;;;;7.76;58.39;99309.06;5036990;28;45504;-61
2021/11/26 11:19:55;;;;;;;;;7.25;6.00;;;;;7.79;58.21;99306.16;5053760;28;45640;-61
2021/11/26 11:22:20;;;;;;;;;10.25;6.00;;;;;7.81;58.26;99285.91;5052888;28;45562;-61
2021/11/26 11:24:46;;;;;;;;;4.25;4.00;;;;;7.88;57.96;99284.34;5041636;28;45490;-62
2021/11/26 11:27:11;;;;;;;;;7.50;5.00;;;;;7.93;57.98;99261.16;5053136;28;54255;-61
2021/11/26 11:29:37;;;;;;;;;4.50;4.50;;;;;7.98;57.57;99258.09;5053346;28;45340;-61
2021/11/26 11:32:02;;;;;;;;;4.50;4.00;;;;;8.01;57.31;99248.16;5055494;28;69393;-61
2021/11/26 11:34:29;;;;;;;;;4.25;3.50;;;;;8.06;57.16;99239.03;5063302;28;45514;-61